Time;durP1;ratioP1;P1;durP2;ratioP2;P2;SDS_P1;SDS_P2;PMS_P1;PMS_P2;Temp;Humidity;BMP_temperature;BMP_pressure;BME280_temperature;BME280_humidity;BME280_pressure;Samples;Min_cycle;Max_cycle;Signal;HPM_P1;HPM_P2
2022/10/09 00:00:48;;;;;;;4.40;1.20;;;6.70;98.20;;;;;;4745121;30;20049;-68
2022/10/09 00:03:16;;;;;;;6.70;1.63;;;6.70;98.10;;;;;;4734142;30;20048;-68
2022/10/09 00:05:43;;;;;;;4.45;1.02;;;6.60;98.30;;;;;;4733909;30;20183;-68
2022/10/09 00:08:09;;;;;;;7.00;1.65;;;6.60;98.20;;;;;;4743938;30;20052;-68
2022/10/09 00:10:42;;;;;;;7.70;1.55;;;6.60;98.30;;;;;;4744062;30;20040;-68
2022/10/09 00:13:08;;;;;;;4.38;1.45;;;6.60;98.40;;;;;;4747132;30;20040;-68
2022/10/09 00:15:43;;;;;;;3.65;1.20;;;6.60;98.30;;;;;;4741217;30;20055;-68
2022/10/09 00:18:10;;;;;;;4.43;1.27;;;6.50;98.40;;;;;;4744783;30;20175;-68
2022/10/09 00:20:38;;;;;;;5.30;1.25;;;6.50;98.30;;;;;;4730847;30;20040;-68
2022/10/09 00:23:04;;;;;;;5.18;1.50;;;6.40;98.30;;;;;;4740368;30;20053;-68
2022/10/09 00:25:30;;;;;;;6.20;1.85;;;6.40;98.40;;;;;;4741735;30;20510;-68
2022/10/09 00:27:57;;;;;;;7.85;2.25;;;6.40;98.40;;;;;;4748525;30;20099;-68
2022/10/09 00:30:22;;;;;;;6.25;1.85;;;6.30;98.40;;;;;;4731369;30;20522;-68
2022/10/09 00:32:48;;;;;;;6.43;1.47;;;6.30;98.50;;;;;;4733353;30;20073;-68
2022/10/09 00:35:14;;;;;;;6.67;1.40;;;6.30;98.70;;;;;;4736312;30;20048;-68
2022/10/09 00:37:39;;;;;;;3.67;1.60;;;6.30;98.70;;;;;;4744507;30;20446;-68
2022/10/09 00:40:06;;;;;;;6.70;1.60;;;6.30;98.60;;;;;;4715238;30;20047;-68
2022/10/09 00:42:31;;;;;;;5.45;1.60;;;6.20;98.80;;;;;;4743823;30;20670;-68
2022/10/09 00:45:00;;;;;;;5.60;1.70;;;6.20;98.90;;;;;;4736557;30;20079;-68
2022/10/09 00:47:34;;;;;;;4.20;1.23;;;6.30;98.90;;;;;;4734302;30;20049;-68
2022/10/09 00:50:25;;;;;;;5.60;1.27;;;6.30;99.20;;;;;;4750261;30;20076;-68
2022/10/09 00:52:58;;;;;;;6.85;1.25;;;6.30;99.10;;;;;;4747807;30;20059;-68
2022/10/09 00:55:24;;;;;;;6.60;1.70;;;6.30;99.20;;;;;;4727323;30;20148;-68
2022/10/09 00:57:53;;;;;;;5.88;1.63;;;6.30;99.30;;;;;;4748303;30;20120;-68
2022/10/09 01:00:19;;;;;;;5.78;1.50;;;6.30;99.40;;;;;;4729601;30;20055;-68
2022/10/09 01:02:45;;;;;;;4.85;1.60;;;6.30;99.20;;;;;;4730822;30;20044;-68
2022/10/09 01:05:11;;;;;;;7.57;2.27;;;6.30;99.50;;;;;;4739647;30;20392;-68
2022/10/09 01:07:48;;;;;;;6.68;1.50;;;6.30;99.50;;;;;;4742657;30;20407;-68
2022/10/09 01:10:36;;;;;;;7.75;1.70;;;6.30;99.60;;;;;;4738002;30;20285;-68
2022/10/09 01:13:14;;;;;;;5.07;1.33;;;6.30;99.60;;;;;;4724807;30;20109;-68
2022/10/09 01:15:57;;;;;;;3.92;1.73;;;6.30;99.90;;;;;;4721541;30;20092;-68
2022/10/09 01:18:45;;;;;;;4.93;1.60;;;6.30;99.60;;;;;;4726579;30;20091;-68
2022/10/09 01:21:17;;;;;;;7.20;1.50;;;6.30;99.80;;;;;;4730941;30;20060;-68
2022/10/09 01:23:54;;;;;;;6.90;1.48;;;6.30;99.90;;;;;;4746175;30;20194;-68
2022/10/09 01:26:48;;;;;;;5.15;1.85;;;6.30;99.90;;;;;;4726209;30;20143;-68
2022/10/09 01:29:16;;;;;;;8.38;1.80;;;6.30;99.80;;;;;;4738775;30;20139;-68
2022/10/09 01:31:45;;;;;;;3.85;1.60;;;6.20;99.80;;;;;;4744391;30;20394;-68
2022/10/09 01:34:13;;;;;;;8.13;2.00;;;6.10;99.90;;;;;;4740911;30;20387;-68
2022/10/09 01:36:40;;;;;;;8.10;2.50;;;6.10;99.90;;;;;;4746576;30;20096;-68
2022/10/09 01:39:09;;;;;;;4.72;1.70;;;6.10;99.90;;;;;;4743579;30;20123;-68
2022/10/09 01:41:34;;;;;;;5.72;1.75;;;6.00;99.90;;;;;;4743182;30;20191;-68
2022/10/09 01:44:00;;;;;;;6.17;1.60;;;6.00;99.90;;;;;;4748217;30;20077;-68
2022/10/09 01:46:30;;;;;;;5.53;1.70;;;6.00;99.90;;;;;;4739498;30;20049;-68
2022/10/09 01:49:14;;;;;;;7.22;2.22;;;6.00;99.90;;;;;;4739845;30;20064;-68
2022/10/09 01:51:50;;;;;;;8.27;1.83;;;5.90;99.90;;;;;;4723429;30;20053;-68
2022/10/09 01:54:27;;;;;;;4.82;2.30;;;5.90;99.90;;;;;;4741185;30;20044;-68
2022/10/09 01:56:54;;;;;;;7.40;2.28;;;5.90;99.90;;;;;;4722225;30;20060;-68
2022/10/09 01:59:21;;;;;;;7.68;2.00;;;5.80;99.90;;;;;;4730343;30;20568;-68
2022/10/09 02:01:47;;;;;;;7.82;2.70;;;5.80;99.90;;;;;;4737989;30;20094;-68
2022/10/09 02:04:15;;;;;;;7.20;2.40;;;5.80;99.90;;;;;;4737313;30;20589;-68
2022/10/09 02:06:41;;;;;;;5.78;2.47;;;5.70;99.90;;;;;;4747046;30;20066;-68
2022/10/09 02:09:13;;;;;;;5.60;2.22;;;5.80;99.90;;;;;;4754202;30;20052;-68
2022/10/09 02:11:42;;;;;;;8.07;2.50;;;5.70;99.90;;;;;;4739817;30;20411;-68
2022/10/09 02:14:08;;;;;;;8.50;2.22;;;5.80;99.90;;;;;;4728106;30;20145;-68
2022/10/09 02:16:36;;;;;;;6.75;2.50;;;5.80;99.90;;;;;;4741056;30;20075;-68
2022/10/09 02:19:43;;;;;;;8.77;2.22;;;5.80;99.90;;;;;;4734978;30;20120;-68
2022/10/09 02:22:22;;;;;;;7.65;2.22;;;5.80;99.90;;;;;;4673695;30;20046;-68
2022/10/09 02:24:48;;;;;;;4.13;2.38;;;5.80;99.90;;;;;;4679256;30;20054;-68
2022/10/09 02:27:15;;;;;;;8.27;2.20;;;5.70;99.90;;;;;;4692739;30;20137;-68
2022/10/09 02:29:43;;;;;;;9.73;2.65;;;5.70;99.90;;;;;;4745892;30;20418;-68
2022/10/09 02:32:10;;;;;;;12.05;2.75;;;5.70;99.90;;;;;;4731565;30;20061;-68
2022/10/09 02:34:36;;;;;;;8.07;2.95;;;5.80;99.90;;;;;;4741257;30;20300;-68
2022/10/09 02:37:02;;;;;;;6.57;2.65;;;5.90;99.90;;;;;;4716846;30;20044;-68
2022/10/09 02:39:28;;;;;;;7.60;2.72;;;5.90;99.90;;;;;;4744150;30;20049;-68
2022/10/09 02:41:53;;;;;;;8.63;2.80;;;5.90;99.90;;;;;;4746265;30;20047;-68
2022/10/09 02:44:19;;;;;;;7.70;2.77;;;5.90;99.90;;;;;;4746270;30;20103;-68
2022/10/09 02:46:45;;;;;;;8.57;3.67;;;5.90;99.90;;;;;;4733609;30;20087;-68
2022/10/09 02:49:10;;;;;;;6.67;2.73;;;6.00;99.90;;;;;;4737464;30;20049;-68
2022/10/09 02:51:36;;;;;;;7.63;2.90;;;5.90;99.90;;;;;;4734662;30;20048;-68
2022/10/09 02:54:03;;;;;;;7.87;2.90;;;5.90;99.90;;;;;;4717464;30;20048;-68
2022/10/09 02:56:28;;;;;;;11.32;2.90;;;5.90;99.90;;;;;;4729361;30;20083;-68
2022/10/09 02:58:54;;;;;;;11.90;3.63;;;5.90;99.90;;;;;;4746199;30;20128;-68
2022/10/09 03:01:20;;;;;;;9.43;3.22;;;5.90;99.90;;;;;;4744856;30;20422;-68
2022/10/09 03:03:46;;;;;;;6.23;2.50;;;5.90;99.90;;;;;;4750227;30;20059;-68
2022/10/09 03:06:15;;;;;;;7.47;3.60;;;5.80;99.90;;;;;;4736509;30;20053;-68
2022/10/09 03:08:44;;;;;;;6.78;3.03;;;5.80;99.90;;;;;;4748514;30;20055;-68
2022/10/09 03:11:10;;;;;;;6.82;3.50;;;5.80;99.90;;;;;;4731254;30;20052;-68
2022/10/09 03:13:38;;;;;;;13.50;3.60;;;5.70;99.90;;;;;;4743833;30;20048;-68
2022/10/09 03:16:33;;;;;;;7.82;3.97;;;5.70;99.90;;;;;;4724697;30;20145;-68
2022/10/09 03:18:59;;;;;;;9.88;4.40;;;5.80;99.90;;;;;;4716139;30;20557;-68
2022/10/09 03:21:26;;;;;;;8.70;4.27;;;5.80;99.90;;;;;;4747228;30;20086;-68
2022/10/09 03:23:53;;;;;;;14.40;4.78;;;5.80;99.90;;;;;;4745003;30;20565;-68
2022/10/09 03:26:22;;;;;;;9.88;4.20;;;5.80;99.90;;;;;;4736281;30;20045;-68
2022/10/09 03:28:49;;;;;;;9.82;4.10;;;5.80;99.90;;;;;;4733160;30;20274;-68
2022/10/09 03:31:17;;;;;;;13.57;5.00;;;5.80;99.90;;;;;;4745344;30;20509;-68
2022/10/09 03:33:43;;;;;;;10.07;5.43;;;5.80;99.90;;;;;;4744182;30;20429;-68
2022/10/09 03:36:09;;;;;;;13.77;5.37;;;5.80;99.90;;;;;;4712039;30;20053;-68
2022/10/09 03:38:35;;;;;;;29.13;5.95;;;5.70;99.90;;;;;;4726366;30;20056;-68
2022/10/09 03:41:03;;;;;;;7.05;4.32;;;5.80;99.90;;;;;;4742219;30;20192;-68
2022/10/09 03:43:29;;;;;;;9.55;5.03;;;5.80;99.90;;;;;;4716525;30;20060;-68
2022/10/09 03:45:55;;;;;;;8.82;5.30;;;5.70;99.90;;;;;;4746785;30;20053;-68
2022/10/09 03:48:22;;;;;;;10.85;4.63;;;5.70;99.90;;;;;;4741080;30;20059;-68
2022/10/09 03:50:48;;;;;;;9.20;4.82;;;5.70;99.90;;;;;;4729302;30;20135;-68
2022/10/09 03:53:15;;;;;;;14.73;5.40;;;5.70;99.90;;;;;;4741190;30;20048;-68
2022/10/09 03:55:41;;;;;;;10.23;5.15;;;5.70;99.90;;;;;;4743314;30;20082;-68
2022/10/09 03:58:07;;;;;;;10.18;5.30;;;5.70;99.90;;;;;;4740157;30;20040;-68
2022/10/09 04:00:33;;;;;;;10.47;5.00;;;5.70;99.90;;;;;;4731225;30;20036;-68
2022/10/09 04:02:59;;;;;;;11.10;4.77;;;5.70;99.90;;;;;;4739790;30;20596;-68
2022/10/09 04:05:25;;;;;;;14.00;5.27;;;5.60;99.90;;;;;;4750887;30;20043;-68
2022/10/09 04:07:50;;;;;;;36.97;7.60;;;5.60;99.90;;;;;;4744952;30;20044;-68
2022/10/09 04:10:16;;;;;;;10.47;5.10;;;5.50;99.90;;;;;;4744998;30;20163;-68
2022/10/09 04:12:42;;;;;;;11.27;4.50;;;5.40;99.90;;;;;;4739265;30;20151;-68
2022/10/09 04:15:09;;;;;;;9.10;4.43;;;5.40;99.90;;;;;;4740132;30;20131;-68
2022/10/09 04:17:34;;;;;;;10.15;5.88;;;5.30;99.90;;;;;;4728566;30;20131;-68
2022/10/09 04:20:00;;;;;;;9.07;5.40;;;5.30;99.90;;;;;;4742553;30;20167;-68
2022/10/09 04:22:27;;;;;;;11.23;4.47;;;5.40;99.90;;;;;;4738062;30;20045;-68
2022/10/09 04:24:53;;;;;;;8.63;5.00;;;5.40;99.90;;;;;;4736960;30;20103;-68
2022/10/09 04:27:19;;;;;;;10.30;5.23;;;5.40;99.90;;;;;;4751751;30;20069;-68
2022/10/09 04:29:44;;;;;;;10.20;5.57;;;5.40;99.90;;;;;;4727180;30;20044;-68
2022/10/09 04:32:10;;;;;;;10.63;5.10;;;5.40;99.90;;;;;;4714070;30;20311;-68
2022/10/09 04:34:36;;;;;;;12.60;5.50;;;5.50;99.90;;;;;;4740033;30;20514;-68
2022/10/09 04:37:01;;;;;;;12.73;5.47;;;5.50;99.90;;;;;;4714566;30;20056;-68
2022/10/09 04:39:27;;;;;;;9.80;5.27;;;5.50;99.90;;;;;;4745575;30;20048;-68
2022/10/09 04:41:53;;;;;;;13.40;6.47;;;5.60;99.90;;;;;;4734671;30;20044;-68
2022/10/09 04:44:18;;;;;;;12.97;6.03;;;5.60;99.90;;;;;;4742371;30;20060;-68
2022/10/09 04:46:44;;;;;;;10.03;5.37;;;5.60;99.90;;;;;;4743633;30;20495;-68
2022/10/09 04:49:13;;;;;;;11.80;5.80;;;5.60;99.90;;;;;;4740115;30;20041;-68
2022/10/09 04:51:40;;;;;;;12.13;6.15;;;5.60;99.90;;;;;;4735836;30;20080;-68
2022/10/09 04:54:06;;;;;;;13.70;5.88;;;5.60;99.90;;;;;;4744201;30;20138;-68
2022/10/09 04:56:32;;;;;;;11.30;5.72;;;5.70;99.90;;;;;;4723837;30;20076;-68
2022/10/09 04:58:58;;;;;;;12.37;6.17;;;5.70;99.90;;;;;;4740143;30;20139;-68
2022/10/09 05:01:25;;;;;;;9.48;5.70;;;5.70;99.90;;;;;;4734093;30;20059;-68
2022/10/09 05:03:52;;;;;;;10.15;6.25;;;5.70;99.90;;;;;;4712512;30;20041;-68
2022/10/09 05:06:19;;;;;;;12.48;5.78;;;5.60;99.90;;;;;;4729186;30;20625;-68
2022/10/09 05:08:45;;;;;;;11.07;5.70;;;5.60;99.90;;;;;;4727151;30;20409;-68
2022/10/09 05:11:16;;;;;;;13.60;5.80;;;5.60;99.90;;;;;;4741949;30;20124;-68
2022/10/09 05:13:45;;;;;;;13.43;6.03;;;5.60;99.90;;;;;;4740370;30;20306;-68
2022/10/09 05:16:15;;;;;;;11.50;5.60;;;5.60;99.90;;;;;;4736726;30;20432;-68
2022/10/09 05:18:42;;;;;;;9.40;5.45;;;5.50;99.90;;;;;;4725496;30;20061;-68
2022/10/09 05:21:08;;;;;;;8.50;5.65;;;5.50;99.90;;;;;;4754423;30;20045;-68
2022/10/09 05:23:34;;;;;;;9.30;5.38;;;5.50;99.90;;;;;;4748721;30;20116;-68
2022/10/09 05:26:05;;;;;;;12.80;5.95;;;5.50;99.90;;;;;;4740854;30;20568;-68
2022/10/09 05:28:32;;;;;;;11.32;5.05;;;5.50;99.90;;;;;;4728920;30;20045;-68
2022/10/09 05:30:58;;;;;;;9.80;5.90;;;5.40;99.90;;;;;;4710697;30;20078;-68
2022/10/09 05:33:23;;;;;;;11.80;5.60;;;5.40;99.90;;;;;;4739625;30;20048;-68
2022/10/09 05:35:51;;;;;;;14.03;5.67;;;5.40;99.90;;;;;;4743640;30;20083;-68
2022/10/09 05:38:17;;;;;;;10.45;5.57;;;5.40;99.90;;;;;;4728721;30;20048;-68
2022/10/09 05:40:57;;;;;;;9.80;5.37;;;5.40;99.90;;;;;;4724683;30;20061;-68
2022/10/09 05:43:24;;;;;;;13.32;5.60;;;5.40;99.90;;;;;;4735796;30;20980;-68
2022/10/09 05:45:50;;;;;;;11.88;5.53;;;5.40;99.90;;;;;;4731496;30;20683;-68
2022/10/09 05:48:16;;;;;;;9.73;5.30;;;5.40;99.90;;;;;;4737121;30;20041;-68
2022/10/09 05:50:41;;;;;;;9.15;5.40;;;5.30;99.90;;;;;;4744982;30;20149;-68
2022/10/09 05:53:07;;;;;;;9.60;5.53;;;5.30;99.90;;;;;;4749834;30;20048;-68
2022/10/09 05:55:33;;;;;;;8.53;5.03;;;5.30;99.90;;;;;;4743763;30;20402;-68
2022/10/09 05:57:59;;;;;;;12.00;5.27;;;5.30;99.90;;;;;;4717192;30;20053;-68
2022/10/09 06:00:24;;;;;;;8.40;5.60;;;5.30;99.90;;;;;;4746784;30;20055;-68
2022/10/09 06:02:50;;;;;;;12.23;5.93;;;5.20;99.90;;;;;;4747016;30;20564;-68
2022/10/09 06:05:16;;;;;;;9.97;5.33;;;5.20;99.90;;;;;;4744170;30;20560;-68
2022/10/09 06:07:41;;;;;;;8.00;5.50;;;5.20;99.90;;;;;;4734234;30;20129;-68
2022/10/09 06:10:07;;;;;;;8.30;5.17;;;5.20;99.90;;;;;;4747957;30;20059;-68
2022/10/09 06:12:33;;;;;;;9.15;5.85;;;5.20;99.90;;;;;;4717491;30;20146;-68
2022/10/09 06:14:59;;;;;;;10.10;5.37;;;5.20;99.90;;;;;;4735202;30;20558;-68
2022/10/09 06:17:25;;;;;;;11.77;5.60;;;5.30;99.90;;;;;;4736617;30;20426;-68
2022/10/09 06:19:50;;;;;;;9.97;5.50;;;5.30;99.90;;;;;;4742809;30;20552;-68
2022/10/09 06:22:16;;;;;;;7.37;5.77;;;5.30;99.90;;;;;;4712284;30;20071;-68
2022/10/09 06:24:42;;;;;;;11.17;6.10;;;5.40;99.90;;;;;;4739433;30;20049;-68
2022/10/09 06:27:07;;;;;;;11.20;5.93;;;5.40;99.90;;;;;;4737316;30;20048;-68
2022/10/09 06:29:33;;;;;;;10.33;6.33;;;5.50;99.90;;;;;;4727636;30;20048;-68
2022/10/09 06:31:59;;;;;;;9.57;6.33;;;5.50;99.90;;;;;;4719877;30;20052;-68
2022/10/09 06:34:24;;;;;;;11.80;6.87;;;5.60;99.90;;;;;;4746096;30;20080;-68
2022/10/09 06:36:50;;;;;;;12.83;6.57;;;5.70;99.90;;;;;;4730170;30;20607;-68
2022/10/09 06:39:16;;;;;;;15.67;7.20;;;5.70;99.90;;;;;;4726569;30;20065;-68
2022/10/09 06:41:41;;;;;;;10.40;6.20;;;5.80;99.90;;;;;;4746964;30;20135;-68
2022/10/09 06:44:10;;;;;;;13.73;6.43;;;5.80;99.90;;;;;;4726392;30;20176;-68
2022/10/09 06:46:39;;;;;;;11.10;6.30;;;5.90;99.90;;;;;;4730508;30;20091;-68
2022/10/09 06:49:06;;;;;;;10.90;6.28;;;6.00;99.90;;;;;;4738437;30;20508;-68
2022/10/09 06:51:33;;;;;;;10.88;6.85;;;6.00;99.90;;;;;;4723721;30;20051;-68
2022/10/09 06:54:01;;;;;;;13.63;7.72;;;6.10;99.90;;;;;;4747639;30;20044;-68
2022/10/09 06:56:29;;;;;;;9.75;6.68;;;6.20;99.90;;;;;;4735644;30;20057;-68
2022/10/09 06:58:55;;;;;;;12.95;7.13;;;6.30;99.90;;;;;;4745513;30;20068;-68
2022/10/09 07:01:25;;;;;;;11.38;7.38;;;6.40;99.90;;;;;;4745784;30;20049;-69
2022/10/09 07:03:54;;;;;;;10.85;7.43;;;6.50;99.90;;;;;;4747755;30;20040;-68
2022/10/09 07:06:26;;;;;;;12.05;7.53;;;6.60;99.90;;;;;;4746247;30;20058;-68
2022/10/09 07:08:55;;;;;;;11.73;6.85;;;6.60;99.90;;;;;;4741352;30;20447;-68
2022/10/09 07:11:27;;;;;;;15.73;7.43;;;6.70;99.90;;;;;;4734979;30;20103;-68
2022/10/09 07:13:55;;;;;;;10.88;7.28;;;6.80;99.90;;;;;;4745166;30;20274;-69
2022/10/09 07:16:24;;;;;;;13.30;7.93;;;6.90;99.90;;;;;;4750524;30;20102;-68
2022/10/09 07:18:50;;;;;;;14.65;7.28;;;7.00;99.90;;;;;;4750629;30;20048;-68
2022/10/09 07:21:16;;;;;;;9.83;6.93;;;7.10;99.90;;;;;;4746744;30;20405;-68
2022/10/09 07:23:42;;;;;;;13.07;7.40;;;7.30;99.90;;;;;;4717635;30;20081;-69
2022/10/09 07:26:11;;;;;;;10.33;6.33;;;7.40;99.90;;;;;;4743046;30;20558;-69
2022/10/09 07:28:37;;;;;;;9.88;6.30;;;7.50;99.90;;;;;;4725677;30;20164;-69
2022/10/09 07:31:03;;;;;;;14.40;6.47;;;7.60;99.90;;;;;;4741138;30;20417;-69
2022/10/09 07:33:29;;;;;;;11.90;6.25;;;7.70;99.90;;;;;;4728047;30;20056;-68
2022/10/09 07:35:57;;;;;;;10.70;6.27;;;7.80;99.90;;;;;;4745703;30;20549;-68
2022/10/09 07:38:23;;;;;;;11.05;5.85;;;7.90;99.90;;;;;;4735138;30;20052;-69
2022/10/09 07:40:52;;;;;;;10.07;5.85;;;8.00;99.90;;;;;;4742229;30;20057;-69
2022/10/09 07:43:19;;;;;;;12.88;6.30;;;8.10;99.90;;;;;;4713248;30;20126;-70
2022/10/09 07:45:45;;;;;;;11.55;5.55;;;8.20;99.90;;;;;;4721179;30;20049;-70
2022/10/09 07:48:19;;;;;;;9.10;5.65;;;8.30;99.90;;;;;;4729886;30;20325;-69
2022/10/09 07:50:45;;;;;;;10.93;5.32;;;8.40;99.90;;;;;;4743105;30;20466;-69
2022/10/09 07:53:10;;;;;;;15.73;6.40;;;8.50;99.90;;;;;;4721482;30;20132;-70
2022/10/09 07:55:43;;;;;;;11.00;5.20;;;8.60;99.90;;;;;;4719448;30;20417;-71
2022/10/09 07:58:08;;;;;;;9.98;5.93;;;8.70;99.90;;;;;;4724505;30;20503;-70
2022/10/09 08:00:34;;;;;;;11.83;5.50;;;8.80;99.90;;;;;;4714643;30;20048;-69
2022/10/09 08:03:01;;;;;;;16.20;6.50;;;8.90;99.90;;;;;;4711751;30;20115;-71
2022/10/09 08:05:27;;;;;;;9.75;5.43;;;8.90;99.90;;;;;;4728896;30;20048;-69
2022/10/09 08:07:56;;;;;;;9.30;5.05;;;9.00;99.90;;;;;;4726232;30;20037;-69
2022/10/09 08:10:21;;;;;;;9.70;4.90;;;9.10;99.90;;;;;;4719914;30;20032;-69
2022/10/09 08:12:47;;;;;;;9.73;5.10;;;9.20;99.90;;;;;;4734107;30;20777;-69
2022/10/09 08:15:13;;;;;;;16.53;5.20;;;9.30;99.90;;;;;;4733792;30;20061;-70
2022/10/09 08:17:39;;;;;;;9.17;4.80;;;9.50;99.90;;;;;;4718008;30;20191;-69
2022/10/09 08:20:05;;;;;;;7.67;4.57;;;9.50;99.90;;;;;;4718869;30;20124;-71
2022/10/09 08:22:31;;;;;;;8.70;4.25;;;9.70;99.90;;;;;;4735193;30;20396;-70
2022/10/09 08:24:56;;;;;;;8.93;4.43;;;9.80;99.90;;;;;;4727828;30;20485;-70
2022/10/09 08:27:22;;;;;;;7.83;3.90;;;9.90;99.90;;;;;;4740958;30;20063;-70
2022/10/09 08:29:48;;;;;;;6.23;3.63;;;9.90;99.90;;;;;;4737094;30;20040;-70
2022/10/09 08:32:14;;;;;;;8.00;3.53;;;10.00;99.90;;;;;;4707845;30;20077;-70
2022/10/09 08:34:40;;;;;;;10.10;3.63;;;10.10;99.90;;;;;;4724314;30;20057;-71
2022/10/09 08:37:05;;;;;;;8.33;3.37;;;10.10;99.90;;;;;;4728200;30;20481;-70
2022/10/09 08:39:31;;;;;;;8.97;3.30;;;10.20;99.90;;;;;;4724616;30;20502;-70
2022/10/09 08:42:02;;;;;;;7.97;3.40;;;10.30;99.90;;;;;;4722152;30;20045;-71
2022/10/09 08:44:30;;;;;;;9.90;3.63;;;10.30;99.90;;;;;;4722956;30;20052;-69
2022/10/09 08:47:08;;;;;;;8.23;3.13;;;10.40;99.90;;;;;;4725128;30;20151;-71
2022/10/09 08:49:56;;;;;;;7.28;3.22;;;10.50;99.90;;;;;;4723262;30;20421;-70
2022/10/09 08:52:21;;;;;;;9.93;3.25;;;10.60;99.90;;;;;;4732584;30;20105;-69
2022/10/09 08:54:47;;;;;;;8.43;3.23;;;10.70;99.50;;;;;;4730028;30;20057;-70
2022/10/09 08:57:15;;;;;;;10.10;3.17;;;10.80;99.30;;;;;;4726461;30;20056;-70
2022/10/09 08:59:42;;;;;;;7.80;3.63;;;10.90;98.30;;;;;;4736942;30;20477;-70
2022/10/09 09:02:24;;;;;;;9.82;2.95;;;11.10;98.40;;;;;;4726033;30;20290;-70
2022/10/09 09:04:50;;;;;;;8.32;2.63;;;11.20;97.40;;;;;;4733700;30;20122;-69
2022/10/09 09:07:16;;;;;;;5.73;2.93;;;11.30;96.60;;;;;;4719423;30;20053;-70
2022/10/09 09:10:10;;;;;;;7.87;2.87;;;11.40;96.40;;;;;;4721172;30;20537;-69
2022/10/09 09:13:05;;;;;;;6.67;2.60;;;11.50;96.20;;;;;;4719495;30;20044;-69
2022/10/09 09:15:57;;;;;;;7.80;2.63;;;11.70;95.60;;;;;;4721824;30;20606;-69
2022/10/09 09:18:44;;;;;;;7.13;2.67;;;11.80;94.50;;;;;;4722680;30;20090;-69
2022/10/09 09:21:43;;;;;;;6.43;2.17;;;11.90;93.90;;;;;;4734231;30;20334;-69
2022/10/09 09:24:16;;;;;;;7.87;2.57;;;12.00;93.20;;;;;;4734161;30;20291;-69
2022/10/09 09:26:44;;;;;;;9.50;2.00;;;12.10;92.70;;;;;;4741780;30;20313;-70
2022/10/09 09:29:14;;;;;;;6.43;2.17;;;12.20;92.50;;;;;;4731697;30;20288;-69
2022/10/09 09:31:40;;;;;;;5.47;2.60;;;12.30;92.30;;;;;;4739185;30;20400;-70
2022/10/09 09:34:10;;;;;;;8.13;3.07;;;12.40;91.60;;;;;;4725002;30;20302;-70
2022/10/09 09:36:52;;;;;;;6.50;2.10;;;12.50;90.50;;;;;;4721562;30;20302;-69
2022/10/09 09:39:22;;;;;;;10.13;3.23;;;12.50;89.30;;;;;;4734937;30;20311;-69
2022/10/09 09:41:48;;;;;;;7.40;2.20;;;12.50;88.80;;;;;;4725996;30;20698;-69
2022/10/09 09:44:15;;;;;;;12.10;3.00;;;12.60;88.20;;;;;;4725157;30;20642;-69
2022/10/09 09:46:42;;;;;;;5.97;2.50;;;12.60;87.20;;;;;;4725849;30;20422;-69
2022/10/09 09:49:34;;;;;;;5.30;2.10;;;12.70;87.80;;;;;;4724628;30;20859;-69
2022/10/09 09:52:00;;;;;;;8.33;2.30;;;12.80;88.10;;;;;;4720162;30;20353;-69
2022/10/09 09:54:29;;;;;;;7.37;2.07;;;12.90;87.80;;;;;;4709093;30;21081;-70
2022/10/09 09:56:59;;;;;;;8.03;2.43;;;13.00;87.80;;;;;;4737828;30;20912;-70
2022/10/09 09:59:36;;;;;;;7.27;2.07;;;13.10;86.80;;;;;;4737269;30;20299;-70
2022/10/09 10:02:01;;;;;;;8.17;1.90;;;13.20;85.80;;;;;;4728101;30;20655;-69
2022/10/09 10:04:28;;;;;;;7.73;2.30;;;13.30;84.60;;;;;;4737469;30;20306;-71
2022/10/09 10:06:54;;;;;;;8.73;2.80;;;13.30;83.80;;;;;;4729943;30;20545;-70
2022/10/09 10:09:20;;;;;;;9.90;2.20;;;13.40;83.50;;;;;;4744852;30;20294;-70
2022/10/09 10:11:58;;;;;;;8.03;2.40;;;13.40;83.20;;;;;;4747826;30;20044;-70
2022/10/09 10:14:24;;;;;;;8.53;2.23;;;13.50;83.00;;;;;;4728238;30;20296;-68
2022/10/09 10:16:53;;;;;;;9.87;2.43;;;13.60;83.30;;;;;;4729691;30;20716;-70
2022/10/09 10:19:23;;;;;;;6.77;1.90;;;13.70;82.40;;;;;;4729881;30;20368;-68
2022/10/09 10:22:20;;;;;;;5.97;1.70;;;13.80;81.90;;;;;;4727704;30;20402;-70
2022/10/09 10:24:48;;;;;;;5.93;1.50;;;13.90;80.90;;;;;;4740700;30;20402;-69
2022/10/09 10:27:37;;;;;;;8.67;2.17;;;13.90;79.90;;;;;;4746182;30;20738;-69
2022/10/09 10:30:05;;;;;;;7.33;1.67;;;14.00;79.30;;;;;;4735267;30;20302;-69
2022/10/09 10:32:53;;;;;;;7.40;1.70;;;14.00;79.70;;;;;;4721255;30;20307;-69
2022/10/09 10:35:26;;;;;;;5.07;1.60;;;14.10;79.60;;;;;;4738178;30;20382;-69
2022/10/09 10:38:01;;;;;;;5.40;1.30;;;14.00;77.90;;;;;;4750673;30;20389;-70
2022/10/09 10:40:30;;;;;;;;;;;14.10;77.90;;;;;;4734687;30;20282;-70
2022/10/09 10:43:08;;;;;;;12.53;2.23;;;14.10;77.20;;;;;;4738655;30;19992;-70
2022/10/09 10:45:42;;;;;;;8.10;2.10;;;14.10;78.00;;;;;;4740514;30;20322;-69
2022/10/09 10:48:38;;;;;;;9.20;1.65;;;14.10;78.30;;;;;;4741459;30;20802;-69
2022/10/09 10:51:29;;;;;;;9.90;1.48;;;14.20;77.20;;;;;;4738532;30;20505;-70
2022/10/09 10:54:19;;;;;;;7.97;1.77;;;14.20;76.90;;;;;;4740226;30;20079;-71
2022/10/09 10:57:06;;;;;;;9.03;1.80;;;14.30;76.50;;;;;;4736200;30;20349;-70
2022/10/09 10:59:55;;;;;;;6.93;1.30;;;14.30;76.10;;;;;;4721001;30;20314;-70
2022/10/09 11:02:57;;;;;;;5.03;1.97;;;14.40;76.50;;;;;;4739437;30;20297;-70
2022/10/09 11:05:26;;;;;;;5.13;1.63;;;14.50;73.90;;;;;;4722892;30;20832;-71
2022/10/09 11:07:57;;;;;;;9.53;1.83;;;14.60;74.90;;;;;;4727083;30;20295;-70
2022/10/09 11:10:50;;;;;;;7.07;1.40;;;14.60;74.40;;;;;;4739825;30;20287;-70
2022/10/09 11:13:32;;;;;;;6.87;1.30;;;14.70;73.90;;;;;;4725965;30;20646;-70
2022/10/09 11:16:19;;;;;;;7.23;1.33;;;14.80;74.50;;;;;;4734996;30;20792;-70
2022/10/09 11:19:10;;;;;;;6.53;1.37;;;14.90;74.20;;;;;;4741437;30;20708;-70
2022/10/09 11:21:47;;;;;;;6.60;1.43;;;15.00;73.30;;;;;;4732432;30;20376;-71
2022/10/09 11:24:26;;;;;;;7.07;1.40;;;15.10;73.20;;;;;;4732729;30;20374;-71
2022/10/09 11:27:16;;;;;;;6.40;1.50;;;15.20;72.80;;;;;;4730540;30;20314;-71
2022/10/09 11:30:07;;;;;;;6.80;1.37;;;15.30;73.60;;;;;;4742110;30;20417;-71
2022/10/09 11:32:56;;;;;;;4.97;1.20;;;15.30;72.20;;;;;;4728178;30;20307;-70
2022/10/09 11:35:26;;;;;;;6.50;1.30;;;15.40;71.50;;;;;;4728799;30;20299;-70
2022/10/09 11:38:06;;;;;;;5.90;1.37;;;15.50;72.30;;;;;;4728954;30;20291;-70
2022/10/09 11:40:41;;;;;;;7.80;1.03;;;15.50;70.20;;;;;;4747998;30;20365;-71
2022/10/09 11:43:30;;;;;;;6.87;1.43;;;15.50;70.60;;;;;;4751544;30;20327;-72
2022/10/09 11:46:19;;;;;;;7.43;1.10;;;15.60;68.70;;;;;;4742767;30;20870;-70
2022/10/09 11:49:02;;;;;;;5.20;1.23;;;15.60;68.60;;;;;;4743761;30;20388;-70
2022/10/09 11:51:31;;;;;;;7.20;1.20;;;15.70;69.10;;;;;;4683145;30;20302;-72
2022/10/09 11:53:58;;;;;;;4.67;1.10;;;15.60;68.80;;;;;;4724974;30;20711;-72
2022/10/09 11:56:29;;;;;;;5.30;0.70;;;15.70;69.60;;;;;;4736555;30;20661;-70
2022/10/09 11:59:05;;;;;;;6.93;0.90;;;15.80;69.60;;;;;;4738077;30;20302;-70
2022/10/09 12:01:36;;;;;;;5.13;1.23;;;15.90;69.00;;;;;;4724613;30;20305;-71
2022/10/09 12:04:04;;;;;;;6.10;1.17;;;16.00;67.30;;;;;;4740661;30;20298;-71
2022/10/09 12:06:31;;;;;;;8.10;1.50;;;16.00;67.30;;;;;;4728045;30;20422;-70
2022/10/09 12:09:07;;;;;;;6.93;1.50;;;16.00;66.70;;;;;;4727113;30;20311;-70
2022/10/09 12:11:34;;;;;;;4.30;1.50;;;16.00;66.50;;;;;;4728192;30;20295;-70
2022/10/09 12:14:07;;;;;;;6.83;1.30;;;16.00;66.50;;;;;;4726697;30;20287;-68
2022/10/09 12:16:45;;;;;;;3.50;0.90;;;16.10;66.50;;;;;;4716690;30;20660;-69
2022/10/09 12:19:19;;;;;;;6.43;1.40;;;16.10;66.50;;;;;;4739867;30;20610;-69
2022/10/09 12:21:54;;;;;;;6.60;1.77;;;16.20;65.40;;;;;;4703166;30;20831;-70
2022/10/09 12:24:23;;;;;;;4.53;1.40;;;16.20;65.70;;;;;;4747480;30;20378;-70
2022/10/09 12:26:52;;;;;;;7.23;1.70;;;16.10;64.30;;;;;;4735753;30;20151;-70
2022/10/09 12:29:42;;;;;;;6.27;1.73;;;16.10;63.90;;;;;;4725552;30;20306;-69
2022/10/09 12:32:22;;;;;;;8.60;1.63;;;16.10;62.90;;;;;;4725266;30;20657;-69
2022/10/09 12:34:49;;;;;;;4.83;1.97;;;16.00;63.30;;;;;;4721733;30;20311;-69
2022/10/09 12:37:21;;;;;;;6.20;1.40;;;16.10;63.50;;;;;;4738948;30;20298;-70
2022/10/09 12:39:48;;;;;;;9.07;1.60;;;16.10;63.80;;;;;;4728285;30;20727;-70
2022/10/09 12:42:19;;;;;;;4.80;1.20;;;16.20;64.20;;;;;;4737889;30;20432;-70
2022/10/09 12:44:46;;;;;;;5.90;1.47;;;16.30;64.00;;;;;;4739517;30;20329;-70
2022/10/09 12:47:24;;;;;;;7.63;1.83;;;16.30;63.30;;;;;;4720681;30;20319;-70
2022/10/09 12:50:24;;;;;;;4.27;1.50;;;16.30;63.10;;;;;;4739010;30;20290;-70
2022/10/09 12:52:59;;;;;;;5.63;1.57;;;16.30;63.00;;;;;;4722671;30;20382;-69
2022/10/09 12:55:25;;;;;;;4.40;0.90;;;16.20;62.80;;;;;;4740569;30;20291;-69
2022/10/09 12:57:52;;;;;;;8.30;1.40;;;16.20;63.20;;;;;;4735158;30;20291;-69
2022/10/09 13:00:18;;;;;;;6.40;1.47;;;16.10;63.00;;;;;;4743564;30;20498;-70
2022/10/09 13:02:44;;;;;;;5.93;1.30;;;16.10;63.60;;;;;;4710957;30;20604;-70
2022/10/09 13:05:09;;;;;;;5.83;1.10;;;16.10;63.40;;;;;;4736633;30;20510;-70
2022/10/09 13:07:35;;;;;;;8.33;1.20;;;16.20;64.00;;;;;;4722481;30;20131;-70